createdAt,value
2023-10-27T00:00:51.294Z,9.80
2023-10-27T00:03:19.301Z,9.80
2023-10-27T00:05:47.297Z,9.80
2023-10-27T00:08:15.672Z,9.80
2023-10-27T00:10:43.664Z,9.80
2023-10-27T00:13:11.607Z,9.80
2023-10-27T00:15:39.651Z,9.80
2023-10-27T00:18:09.004Z,9.80
2023-10-27T00:20:36.933Z,9.80
2023-10-27T00:23:04.923Z,9.70
2023-10-27T00:25:32.940Z,9.80
2023-10-27T00:28:01.018Z,9.80
2023-10-27T00:30:29.026Z,9.80
2023-10-27T00:32:57.047Z,10.00
2023-10-27T00:35:26.550Z,9.90
2023-10-27T00:37:54.540Z,9.80
2023-10-27T00:40:23.132Z,9.80
2023-10-27T00:42:51.187Z,9.80
2023-10-27T00:45:19.597Z,9.80
2023-10-27T00:47:48.041Z,9.70
2023-10-27T00:50:16.194Z,9.70
2023-10-27T00:52:45.543Z,9.70
2023-10-27T00:55:13.791Z,9.80
2023-10-27T00:57:43.684Z,9.70
2023-10-27T01:00:13.143Z,9.70
2023-10-27T01:02:41.233Z,9.70
2023-10-27T01:05:09.976Z,9.60
2023-10-27T01:07:39.369Z,9.70
2023-10-27T01:10:09.954Z,9.70
2023-10-27T01:12:37.901Z,9.60
2023-10-27T01:15:06.482Z,9.60
2023-10-27T01:17:34.502Z,9.50
2023-10-27T01:20:02.571Z,9.50
2023-10-27T01:22:30.963Z,9.60
2023-10-27T01:25:00.384Z,9.60
2023-10-27T01:27:28.435Z,9.50
2023-10-27T01:29:56.348Z,9.50
2023-10-27T01:32:24.320Z,9.50
2023-10-27T01:34:52.771Z,9.50
2023-10-27T01:37:20.810Z,9.50
2023-10-27T01:39:49.500Z,9.50
2023-10-27T01:42:18.857Z,9.50
2023-10-27T01:44:46.764Z,9.50
2023-10-27T01:47:14.690Z,9.50
2023-10-27T01:49:42.840Z,9.50
2023-10-27T01:52:10.933Z,9.50
2023-10-27T01:54:38.888Z,9.50
2023-10-27T01:57:06.823Z,9.50
2023-10-27T01:59:36.118Z,9.50
2023-10-27T02:02:04.170Z,9.50
2023-10-27T02:04:36.725Z,9.40
2023-10-27T02:07:05.760Z,9.40
2023-10-27T02:09:33.725Z,9.40
2023-10-27T02:12:01.763Z,9.50
2023-10-27T02:14:29.718Z,9.40
2023-10-27T02:16:58.989Z,9.40
2023-10-27T02:19:27.176Z,9.40
2023-10-27T02:21:55.210Z,9.50
2023-10-27T02:24:23.283Z,9.50
2023-10-27T02:26:51.207Z,9.40
2023-10-27T02:29:21.385Z,9.50
2023-10-27T02:31:49.359Z,9.60
2023-10-27T02:34:18.826Z,9.50
2023-10-27T02:36:46.792Z,9.50
2023-10-27T02:39:14.742Z,9.50
2023-10-27T02:41:41.686Z,9.50
2023-10-27T02:44:10.575Z,9.50
2023-10-27T02:46:38.738Z,9.60
2023-10-27T02:49:06.826Z,9.50
2023-10-27T02:51:36.131Z,9.50
2023-10-27T02:54:04.898Z,9.40
2023-10-27T02:56:32.992Z,9.40
2023-10-27T02:59:00.991Z,9.40
2023-10-27T03:01:28.963Z,9.40
2023-10-27T03:03:57.051Z,9.40
2023-10-27T03:06:25.047Z,9.40
2023-10-27T03:08:54.379Z,9.40
2023-10-27T03:11:22.581Z,9.40
2023-10-27T03:13:50.561Z,9.40
2023-10-27T03:16:18.518Z,9.60
2023-10-27T03:18:46.616Z,9.40
2023-10-27T03:21:14.591Z,9.40
2023-10-27T03:23:42.914Z,9.40
2023-10-27T03:26:12.286Z,9.40
2023-10-27T03:28:43.099Z,9.40
2023-10-27T03:31:14.399Z,9.40
2023-10-27T03:33:42.561Z,9.40
2023-10-27T03:36:10.787Z,9.40
2023-10-27T03:38:38.744Z,9.40
2023-10-27T03:41:06.790Z,9.40
2023-10-27T03:43:36.604Z,9.40
2023-10-27T03:46:05.097Z,9.40
2023-10-27T03:48:33.219Z,9.50
2023-10-27T03:51:04.957Z,9.40
2023-10-27T03:53:32.919Z,9.50
2023-10-27T03:56:00.987Z,9.50
2023-10-27T03:58:40.495Z,9.50
2023-10-27T04:01:17.235Z,9.50
2023-10-27T04:03:45.194Z,9.50
2023-10-27T04:06:13.641Z,9.40
2023-10-27T04:08:41.621Z,9.40
2023-10-27T04:11:09.604Z,9.50
2023-10-27T04:13:37.523Z,9.50
2023-10-27T04:16:06.083Z,9.50
2023-10-27T04:18:35.388Z,9.50
2023-10-27T04:21:04.305Z,9.50
2023-10-27T04:23:32.449Z,9.40
2023-10-27T04:26:00.605Z,9.40
2023-10-27T04:28:28.689Z,9.40
2023-10-27T04:30:56.751Z,9.40
2023-10-27T04:33:26.240Z,9.50
2023-10-27T04:35:55.740Z,9.50
2023-10-27T04:38:23.719Z,9.50
2023-10-27T04:40:52.833Z,9.50
2023-10-27T04:43:22.305Z,9.50
2023-10-27T04:45:50.336Z,9.50
2023-10-27T04:48:18.520Z,9.80
2023-10-27T04:50:46.507Z,9.50
2023-10-27T04:53:15.770Z,9.50
2023-10-27T04:55:43.751Z,9.50
2023-10-27T04:58:11.690Z,9.40
2023-10-27T05:00:39.693Z,9.40
2023-10-27T05:03:09.098Z,9.40
2023-10-27T05:05:37.183Z,9.50
2023-10-27T05:08:06.493Z,9.40
2023-10-27T05:10:37.136Z,9.40
2023-10-27T05:13:05.572Z,9.40
2023-10-27T05:15:33.552Z,9.40
2023-10-27T05:18:05.686Z,9.40
2023-10-27T05:20:38.532Z,9.40
2023-10-27T05:23:06.580Z,9.70
2023-10-27T05:25:36.799Z,9.40
2023-10-27T05:28:05.005Z,9.40
2023-10-27T05:30:35.511Z,9.40
2023-10-27T05:33:03.917Z,9.40
2023-10-27T05:35:32.033Z,9.40
2023-10-27T05:37:59.958Z,9.40
2023-10-27T05:40:32.869Z,9.40
2023-10-27T05:43:02.489Z,9.50
2023-10-27T05:45:30.449Z,9.40
2023-10-27T05:47:58.376Z,9.40
2023-10-27T05:50:26.435Z,9.40
2023-10-27T05:52:54.415Z,9.40
2023-10-27T05:55:22.416Z,9.40
2023-10-27T05:57:50.316Z,9.50
2023-10-27T06:00:20.292Z,9.50
2023-10-27T06:02:49.644Z,9.50
2023-10-27T06:05:17.969Z,9.50
2023-10-27T06:07:45.911Z,9.50
2023-10-27T06:10:14.066Z,9.50
2023-10-27T06:12:42.367Z,9.50
2023-10-27T06:15:10.905Z,9.50
2023-10-27T06:17:40.298Z,9.50
2023-10-27T06:20:18.090Z,9.50
2023-10-27T06:22:47.053Z,9.50
2023-10-27T06:25:15.005Z,9.40
2023-10-27T06:27:42.989Z,9.50
2023-10-27T06:30:11.592Z,9.50
2023-10-27T06:32:40.964Z,9.50
2023-10-27T06:35:09.606Z,9.50
2023-10-27T06:37:37.593Z,9.50
2023-10-27T06:40:06.778Z,9.60
2023-10-27T06:42:35.082Z,9.50
2023-10-27T06:45:04.765Z,9.50
2023-10-27T06:47:32.805Z,9.50
2023-10-27T06:50:04.137Z,9.50
2023-10-27T06:52:32.716Z,9.50
2023-10-27T06:55:00.979Z,9.50
2023-10-27T06:57:29.640Z,9.50
2023-10-27T06:59:58.060Z,9.50
2023-10-27T07:02:26.079Z,9.50
2023-10-27T07:04:54.469Z,9.50
2023-10-27T07:07:28.486Z,9.50
2023-10-27T07:09:57.374Z,9.50
2023-10-27T07:12:25.364Z,9.50
2023-10-27T07:14:53.343Z,9.60
2023-10-27T07:17:21.388Z,9.60
2023-10-27T07:19:49.724Z,9.60
2023-10-27T07:22:20.538Z,9.70
2023-10-27T07:24:49.954Z,9.60
2023-10-27T07:27:17.876Z,9.80
2023-10-27T07:29:47.924Z,9.70
2023-10-27T07:32:15.904Z,9.70
2023-10-27T07:34:44.030Z,9.70
2023-10-27T07:37:12.314Z,9.70
2023-10-27T07:39:40.311Z,9.70
2023-10-27T07:42:10.563Z,9.70
2023-10-27T07:44:38.586Z,9.80
2023-10-27T07:47:06.896Z,9.80
2023-10-27T07:49:35.105Z,9.80
2023-10-27T07:52:04.444Z,9.80
2023-10-27T07:54:32.836Z,9.80
2023-10-27T07:57:00.850Z,9.90
2023-10-27T07:59:30.287Z,9.90
2023-10-27T08:02:00.953Z,9.90
2023-10-27T08:04:29.470Z,9.90
2023-10-27T08:06:57.702Z,10.00
2023-10-27T08:09:25.667Z,10.00
2023-10-27T08:11:54.493Z,10.00
2023-10-27T08:14:22.429Z,10.10
2023-10-27T08:16:52.063Z,10.10
2023-10-27T08:19:20.110Z,10.10
2023-10-27T08:21:49.813Z,10.50
2023-10-27T08:24:18.411Z,10.20
2023-10-27T08:26:46.324Z,10.30
2023-10-27T08:29:14.306Z,10.10
2023-10-27T08:31:42.244Z,10.00
2023-10-27T08:34:13.156Z,10.30
2023-10-27T08:36:41.547Z,10.50
2023-10-27T08:39:09.654Z,10.10
2023-10-27T08:41:39.889Z,10.30
2023-10-27T08:44:25.072Z,10.10
2023-10-27T08:46:54.680Z,10.00
2023-10-27T08:49:24.322Z,10.00
2023-10-27T08:51:52.264Z,10.00
2023-10-27T08:54:21.087Z,10.00
2023-10-27T08:56:49.178Z,10.00
2023-10-27T08:59:17.203Z,10.00
2023-10-27T09:01:46.506Z,10.00
2023-10-27T09:04:16.287Z,10.00
2023-10-27T09:06:45.675Z,9.90
2023-10-27T09:09:13.687Z,10.00
2023-10-27T09:11:43.332Z,10.00
2023-10-27T09:14:21.521Z,10.00
2023-10-27T09:16:49.609Z,9.90
2023-10-27T09:19:21.787Z,9.90
2023-10-27T09:21:51.309Z,9.90
2023-10-27T09:24:23.992Z,9.90
2023-10-27T09:26:51.964Z,10.00
2023-10-27T09:29:20.141Z,9.90
2023-10-27T09:31:48.348Z,10.10
2023-10-27T09:34:20.770Z,10.10
2023-10-27T09:36:51.029Z,10.20
2023-10-27T09:39:21.432Z,10.20
2023-10-27T09:41:53.980Z,10.30
2023-10-27T09:44:24.746Z,10.30
2023-10-27T09:46:55.053Z,10.40
2023-10-27T09:49:30.370Z,10.40
2023-10-27T09:52:01.839Z,10.40
2023-10-27T09:54:32.585Z,10.50
2023-10-27T09:57:02.096Z,10.40
2023-10-27T09:59:34.973Z,10.40
2023-10-27T10:02:06.297Z,10.30
2023-10-27T10:05:01.854Z,10.30
2023-10-27T10:07:32.839Z,10.30
2023-10-27T10:10:17.508Z,10.40
2023-10-27T10:13:05.665Z,10.50
2023-10-27T10:15:34.862Z,10.70
2023-10-27T10:18:03.556Z,10.60
2023-10-27T10:21:00.408Z,10.60
2023-10-27T10:24:01.369Z,10.70
2023-10-27T10:27:03.400Z,10.80
2023-10-27T10:29:36.190Z,10.70
2023-10-27T10:32:33.752Z,10.70
2023-10-27T10:35:24.585Z,10.70
2023-10-27T10:37:56.256Z,10.60
2023-10-27T10:40:27.922Z,10.70
2023-10-27T10:43:21.826Z,10.70
2023-10-27T10:45:52.430Z,10.70
2023-10-27T10:48:21.245Z,10.90
2023-10-27T10:50:49.963Z,10.60
2023-10-27T10:53:19.008Z,10.60
2023-10-27T10:55:47.557Z,10.60
2023-10-27T10:58:23.432Z,10.70
2023-10-27T11:00:53.274Z,10.60
2023-10-27T11:03:23.418Z,10.70
2023-10-27T11:05:55.965Z,10.60
2023-10-27T11:08:26.784Z,10.60
2023-10-27T11:11:05.509Z,10.60
2023-10-27T11:13:36.708Z,10.60
2023-10-27T11:16:14.854Z,10.60
2023-10-27T11:18:43.302Z,10.70
2023-10-27T11:21:16.722Z,10.70
2023-10-27T11:23:44.977Z,10.70
2023-10-27T11:26:13.004Z,10.70
2023-10-27T11:28:42.138Z,10.70
2023-10-27T11:31:13.835Z,10.90
2023-10-27T11:33:58.479Z,10.60
2023-10-27T11:36:26.738Z,10.60
2023-10-27T11:38:55.121Z,10.60
2023-10-27T11:41:23.543Z,10.60
2023-10-27T11:43:51.522Z,10.70
2023-10-27T11:46:21.904Z,10.60
2023-10-27T11:48:50.405Z,10.60
2023-10-27T11:51:18.378Z,10.60
2023-10-27T11:53:47.402Z,10.60
2023-10-27T11:56:16.035Z,10.60
2023-10-27T11:58:43.961Z,10.60
2023-10-27T12:01:12.033Z,10.60
2023-10-27T12:03:41.721Z,10.60
2023-10-27T12:06:09.748Z,10.60
2023-10-27T12:08:37.755Z,10.60
2023-10-27T12:11:05.991Z,10.60
2023-10-27T12:13:34.143Z,10.50
2023-10-27T12:16:02.251Z,10.50
2023-10-27T12:18:33.001Z,10.50
2023-10-27T12:21:03.192Z,10.60
2023-10-27T12:23:33.460Z,10.60
2023-10-27T12:26:02.193Z,10.60
2023-10-27T12:28:30.567Z,10.50
2023-10-27T12:31:01.202Z,10.70
2023-10-27T12:33:29.241Z,10.50
2023-10-27T12:35:57.186Z,10.50
2023-10-27T12:38:27.944Z,10.50
2023-10-27T12:40:58.048Z,10.40
2023-10-27T12:43:25.984Z,10.40
2023-10-27T12:45:53.979Z,10.40
2023-10-27T12:48:22.155Z,10.40
2023-10-27T12:50:50.103Z,10.30
2023-10-27T12:53:19.311Z,10.30
2023-10-27T12:55:49.106Z,10.70
2023-10-27T12:58:17.108Z,10.40
2023-10-27T13:00:45.729Z,10.40
2023-10-27T13:03:14.464Z,10.50
2023-10-27T13:05:42.524Z,10.40
2023-10-27T13:08:11.218Z,10.50
2023-10-27T13:10:39.410Z,10.40
2023-10-27T13:13:11.026Z,10.40
2023-10-27T13:15:39.423Z,10.40
2023-10-27T13:18:08.093Z,10.80
2023-10-27T13:20:36.469Z,10.50
2023-10-27T13:23:05.069Z,10.50
2023-10-27T13:25:33.023Z,10.50
2023-10-27T13:28:01.187Z,10.50
2023-10-27T13:30:30.528Z,10.40
2023-10-27T13:32:58.861Z,10.40
2023-10-27T13:35:26.987Z,10.50
2023-10-27T13:38:04.689Z,10.40
2023-10-27T13:40:36.250Z,10.50
2023-10-27T13:43:04.256Z,10.50
2023-10-27T13:45:33.996Z,10.30
2023-10-27T13:48:02.031Z,10.20
2023-10-27T13:50:30.134Z,10.20
2023-10-27T13:52:58.800Z,10.20
2023-10-27T13:55:26.968Z,10.20
2023-10-27T13:57:56.444Z,10.20
2023-10-27T14:00:27.442Z,10.20
2023-10-27T14:02:57.921Z,10.20
2023-10-27T14:05:26.292Z,10.20
2023-10-27T14:07:54.417Z,10.30
2023-10-27T14:10:22.497Z,10.20
2023-10-27T14:12:50.944Z,10.20
2023-10-27T14:15:22.514Z,10.20
2023-10-27T14:17:51.052Z,10.20
2023-10-27T14:20:21.434Z,10.20
2023-10-27T14:22:49.406Z,10.20
2023-10-27T14:25:17.562Z,10.20
2023-10-27T14:27:48.714Z,10.20
2023-10-27T14:30:16.777Z,10.20
2023-10-27T14:32:44.712Z,10.30
2023-10-27T14:35:17.279Z,10.20
2023-10-27T14:37:47.948Z,10.20
2023-10-27T14:40:16.052Z,10.30
2023-10-27T14:42:43.999Z,10.30
2023-10-27T14:45:12.772Z,10.50
2023-10-27T14:47:44.243Z,10.50
2023-10-27T14:50:13.635Z,10.30
2023-10-27T14:52:43.620Z,10.30
2023-10-27T14:55:15.598Z,10.30
2023-10-27T14:57:43.919Z,10.50
2023-10-27T15:00:13.967Z,10.30
2023-10-27T15:02:42.049Z,10.30
2023-10-27T15:05:11.667Z,10.30
2023-10-27T15:07:39.745Z,10.20
2023-10-27T15:10:16.005Z,10.20
2023-10-27T15:12:45.653Z,10.20
2023-10-27T15:15:13.761Z,10.20
2023-10-27T15:17:41.787Z,10.20
2023-10-27T15:20:11.268Z,10.20
2023-10-27T15:22:41.641Z,10.10
2023-10-27T15:25:10.011Z,10.10
2023-10-27T15:27:39.030Z,10.10
2023-10-27T15:30:10.102Z,10.10
2023-10-27T15:32:38.676Z,10.10
2023-10-27T15:35:07.804Z,10.10
2023-10-27T15:37:36.938Z,10.10
2023-10-27T15:40:13.662Z,10.10
2023-10-27T15:42:41.874Z,10.10
2023-10-27T15:45:11.655Z,10.00
2023-10-27T15:47:42.007Z,10.10
2023-10-27T15:50:13.154Z,10.10
2023-10-27T15:52:41.095Z,10.00
2023-10-27T15:55:09.639Z,10.00
2023-10-27T15:57:37.563Z,9.90
2023-10-27T16:00:10.981Z,9.90
2023-10-27T16:02:40.752Z,9.90
2023-10-27T16:05:09.660Z,9.90
2023-10-27T16:07:38.036Z,9.90
2023-10-27T16:10:11.590Z,9.90
2023-10-27T16:12:39.646Z,9.90
2023-10-27T16:15:08.397Z,9.90
2023-10-27T16:17:36.861Z,9.90
2023-10-27T16:20:07.582Z,10.00
2023-10-27T16:22:38.137Z,9.90
2023-10-27T16:25:08.154Z,9.90
2023-10-27T16:27:37.485Z,9.90
2023-10-27T16:30:06.541Z,9.90
2023-10-27T16:32:34.941Z,9.80
2023-10-27T16:35:04.341Z,9.80
2023-10-27T16:37:33.648Z,9.70
2023-10-27T16:40:01.814Z,9.70
2023-10-27T16:42:29.784Z,9.60
2023-10-27T16:44:57.754Z,9.60
2023-10-27T16:47:25.678Z,9.90
2023-10-27T16:49:55.904Z,9.60
2023-10-27T16:52:24.948Z,9.60
2023-10-27T16:54:54.603Z,9.60
2023-10-27T16:57:22.930Z,9.60
2023-10-27T16:59:51.140Z,9.50
2023-10-27T17:02:21.125Z,9.50
2023-10-27T17:04:49.169Z,9.50
2023-10-27T17:07:17.295Z,9.50
2023-10-27T17:09:51.454Z,9.50
2023-10-27T17:12:21.397Z,9.60
2023-10-27T17:14:50.001Z,9.40
2023-10-27T17:17:18.052Z,9.40
2023-10-27T17:19:46.479Z,9.60
2023-10-27T17:22:15.216Z,9.40
2023-10-27T17:24:45.005Z,9.40
2023-10-27T17:27:13.017Z,9.50
2023-10-27T17:29:42.633Z,9.40
2023-10-27T17:32:12.185Z,9.40
2023-10-27T17:34:40.146Z,9.30
2023-10-27T17:37:08.137Z,9.30
2023-10-27T17:39:37.795Z,9.50
2023-10-27T17:42:06.471Z,9.30
2023-10-27T17:44:35.934Z,9.30
2023-10-27T17:47:05.648Z,9.30
2023-10-27T17:49:33.696Z,9.30
2023-10-27T17:52:02.910Z,9.30
2023-10-27T17:54:34.261Z,9.30
2023-10-27T17:57:02.301Z,9.30
2023-10-27T17:59:31.136Z,9.30
2023-10-27T18:01:59.268Z,9.30
2023-10-27T18:04:28.667Z,9.30
2023-10-27T18:06:56.723Z,9.30
2023-10-27T18:09:24.657Z,9.30
2023-10-27T18:11:53.502Z,9.30
2023-10-27T18:14:23.348Z,9.30
2023-10-27T18:16:51.768Z,9.30
2023-10-27T18:19:19.988Z,9.30
2023-10-27T18:21:49.427Z,9.30
2023-10-27T18:24:17.379Z,9.40
2023-10-27T18:26:45.432Z,9.40
2023-10-27T18:29:13.415Z,9.40
2023-10-27T18:31:41.462Z,9.40
2023-10-27T18:34:09.437Z,9.40
2023-10-27T18:36:37.448Z,9.30
2023-10-27T18:39:06.763Z,9.30
2023-10-27T18:41:36.532Z,9.20
2023-10-27T18:44:06.070Z,9.20
2023-10-27T18:46:34.011Z,9.30
2023-10-27T18:49:01.984Z,9.20
2023-10-27T18:51:29.999Z,9.20
2023-10-27T18:53:57.924Z,9.20
2023-10-27T18:56:27.270Z,9.10
2023-10-27T18:58:55.544Z,9.30
2023-10-27T19:01:23.577Z,9.20
2023-10-27T19:03:51.600Z,9.10
2023-10-27T19:06:20.993Z,9.20
2023-10-27T19:08:50.496Z,9.10
2023-10-27T19:11:19.467Z,9.20
2023-10-27T19:13:49.101Z,9.10
2023-10-27T19:16:18.148Z,9.10
2023-10-27T19:18:47.886Z,9.10
2023-10-27T19:21:17.998Z,9.10
2023-10-27T19:23:48.342Z,9.10
2023-10-27T19:26:17.638Z,9.10
2023-10-27T19:28:47.431Z,9.10
2023-10-27T19:31:18.412Z,9.10
2023-10-27T19:33:48.929Z,9.00
2023-10-27T19:36:17.768Z,9.30
2023-10-27T19:38:45.853Z,9.00
2023-10-27T19:41:13.878Z,9.00
2023-10-27T19:43:42.401Z,9.00
2023-10-27T19:46:11.052Z,9.00
2023-10-27T19:48:41.370Z,9.00
2023-10-27T19:51:10.029Z,9.00
2023-10-27T19:53:38.130Z,8.90
2023-10-27T19:56:07.142Z,8.90
2023-10-27T19:58:35.109Z,8.80
2023-10-27T20:01:11.487Z,8.80
2023-10-27T20:03:41.141Z,8.80
2023-10-27T20:06:09.516Z,8.80
2023-10-27T20:08:39.058Z,8.80
2023-10-27T20:11:10.276Z,8.90
2023-10-27T20:13:38.639Z,8.80
2023-10-27T20:16:08.457Z,8.80
2023-10-27T20:18:36.629Z,8.80
2023-10-27T20:21:10.058Z,8.80
2023-10-27T20:23:38.584Z,8.70
2023-10-27T20:26:08.077Z,8.80
2023-10-27T20:28:36.584Z,8.80
2023-10-27T20:31:06.834Z,8.80
2023-10-27T20:33:36.572Z,8.80
2023-10-27T20:36:07.308Z,8.80
2023-10-27T20:38:35.499Z,8.80
2023-10-27T20:41:03.489Z,8.80
2023-10-27T20:43:31.445Z,8.80
2023-10-27T20:46:03.981Z,8.80
2023-10-27T20:48:32.275Z,8.80
2023-10-27T20:51:05.020Z,9.10
2023-10-27T20:53:33.154Z,8.90
2023-10-27T20:56:01.414Z,8.90
2023-10-27T20:58:29.691Z,8.90
2023-10-27T21:00:58.000Z,8.90
2023-10-27T21:03:26.074Z,8.90
2023-10-27T21:05:54.665Z,8.90
2023-10-27T21:08:24.158Z,8.90
2023-10-27T21:10:53.269Z,9.10
2023-10-27T21:13:21.356Z,8.90
2023-10-27T21:15:49.760Z,8.90
2023-10-27T21:18:20.246Z,8.90
2023-10-27T21:20:48.281Z,9.00
2023-10-27T21:23:16.861Z,8.90
2023-10-27T21:25:46.363Z,8.90
2023-10-27T21:28:14.498Z,8.90
2023-10-27T21:30:42.674Z,8.90
2023-10-27T21:33:12.428Z,9.00
2023-10-27T21:35:40.551Z,9.10
2023-10-27T21:38:08.728Z,8.90
2023-10-27T21:40:36.735Z,9.00
2023-10-27T21:43:06.222Z,9.00
2023-10-27T21:45:34.241Z,8.90
2023-10-27T21:48:04.202Z,9.00
2023-10-27T21:50:32.530Z,8.90
2023-10-27T21:53:01.589Z,9.00
2023-10-27T21:55:29.751Z,9.00
2023-10-27T21:57:57.795Z,9.00
2023-10-27T22:00:32.652Z,8.90
2023-10-27T22:03:02.063Z,9.00
2023-10-27T22:05:31.653Z,9.00
2023-10-27T22:07:59.912Z,9.00
2023-10-27T22:10:27.991Z,9.00
2023-10-27T22:12:55.986Z,9.00
2023-10-27T22:15:24.778Z,8.90
2023-10-27T22:17:54.301Z,9.00
2023-10-27T22:20:22.892Z,9.00
2023-10-27T22:22:51.586Z,9.00
2023-10-27T22:25:20.226Z,9.00
2023-10-27T22:27:53.940Z,9.00
2023-10-27T22:30:27.123Z,9.00
2023-10-27T22:32:56.619Z,9.00
2023-10-27T22:35:24.767Z,9.00
2023-10-27T22:37:52.887Z,9.00
2023-10-27T22:40:21.069Z,9.00
2023-10-27T22:42:49.205Z,9.00
2023-10-27T22:45:17.458Z,9.00
2023-10-27T22:47:48.949Z,9.00
2023-10-27T22:50:18.556Z,9.00
2023-10-27T22:52:46.737Z,9.00
2023-10-27T22:55:14.857Z,9.00
2023-10-27T22:57:43.439Z,9.00
2023-10-27T23:00:12.636Z,9.00
2023-10-27T23:02:41.043Z,9.90
2023-10-27T23:05:09.577Z,9.10
2023-10-27T23:07:40.647Z,9.00
2023-10-27T23:10:10.787Z,9.00
2023-10-27T23:12:40.745Z,9.10
2023-10-27T23:15:11.832Z,9.10
2023-10-27T23:17:40.169Z,9.10
2023-10-27T23:20:13.471Z,9.10
2023-10-27T23:22:43.041Z,9.10
2023-10-27T23:25:11.255Z,9.10
2023-10-27T23:27:41.542Z,9.20
2023-10-27T23:30:10.886Z,9.10
2023-10-27T23:32:38.877Z,9.10
2023-10-27T23:35:08.720Z,9.10
2023-10-27T23:37:37.645Z,9.10
2023-10-27T23:40:09.615Z,9.10
2023-10-27T23:42:37.662Z,9.10
2023-10-27T23:45:06.384Z,9.10
2023-10-27T23:47:34.408Z,9.20
2023-10-27T23:50:02.614Z,9.20
2023-10-27T23:52:30.691Z,9.10
2023-10-27T23:54:58.702Z,9.20
2023-10-27T23:57:28.123Z,9.20
2023-10-27T23:59:57.957Z,9.20
